Time;durP1;ratioP1;P1;durP2;ratioP2;P2;SDS_P1;SDS_P2;PMS_P1;PMS_P2;Temp;Humidity;BMP_temperature;BMP_pressure;BME280_temperature;BME280_humidity;BME280_pressure;Samples;Min_cycle;Max_cycle;Signal;HPM_P1;HPM_P2
2022/07/16 05:01:43;;;;;;;7.07;4.20;;;15.60;87.40;;;;;;5737345;23;20056;-70
2022/07/16 05:04:09;;;;;;;8.45;4.72;;;15.80;86.70;;;;;;4905735;29;20068;-71
2022/07/16 05:06:35;;;;;;;6.35;3.88;;;15.80;86.70;;;;;;4916491;29;20028;-70
2022/07/16 05:09:01;;;;;;;6.03;4.05;;;15.90;86.30;;;;;;4924620;29;20335;-70
2022/07/16 05:11:28;;;;;;;8.20;4.30;;;16.00;85.50;;;;;;4907164;29;20317;-70
2022/07/16 05:13:54;;;;;;;7.70;4.18;;;16.00;86.10;;;;;;4906289;29;20029;-69
2022/07/16 05:16:20;;;;;;;6.03;4.50;;;16.10;86.20;;;;;;4906075;29;20241;-69
2022/07/16 05:18:47;;;;;;;6.57;3.95;;;16.10;85.70;;;;;;4906776;29;20025;-70
2022/07/16 05:21:13;;;;;;;7.00;4.20;;;16.20;85.70;;;;;;4906786;29;20032;-69
2022/07/16 05:23:38;;;;;;;7.20;4.60;;;16.20;85.50;;;;;;4906513;29;20214;-70
2022/07/16 05:26:04;;;;;;;6.05;3.80;;;16.30;85.40;;;;;;4892559;29;20036;-71
2022/07/16 05:28:30;;;;;;;8.38;4.30;;;16.30;84.90;;;;;;4888025;29;20088;-70
2022/07/16 05:30:56;;;;;;;7.60;4.35;;;16.40;84.40;;;;;;4886376;29;20379;-70
2022/07/16 05:33:22;;;;;;;8.02;4.43;;;16.40;83.90;;;;;;4888025;29;20037;-70
2022/07/16 05:35:48;;;;;;;6.60;4.55;;;16.50;83.90;;;;;;4890817;29;20033;-70
2022/07/16 05:38:14;;;;;;;7.72;4.75;;;16.60;84.50;;;;;;4887986;29;20037;-70
2022/07/16 05:40:39;;;;;;;7.15;4.22;;;16.70;83.90;;;;;;4887702;29;20033;-69
2022/07/16 05:43:06;;;;;;;7.25;4.10;;;16.80;83.50;;;;;;4886357;29;20033;-69
2022/07/16 05:45:32;;;;;;;6.63;4.20;;;16.80;83.10;;;;;;4899125;29;20041;-69
2022/07/16 05:47:58;;;;;;;9.23;4.47;;;17.00;82.70;;;;;;4909848;29;20326;-69
2022/07/16 05:50:24;;;;;;;8.15;4.70;;;17.10;81.80;;;;;;4895682;29;20029;-69
2022/07/16 05:52:49;;;;;;;7.90;4.85;;;17.20;82.10;;;;;;4890924;29;20223;-70
2022/07/16 05:55:15;;;;;;;7.20;4.60;;;17.20;81.90;;;;;;4897674;29;20036;-70
2022/07/16 05:57:41;;;;;;;7.22;4.65;;;17.20;81.70;;;;;;4909890;29;20235;-70
2022/07/16 06:00:10;;;;;;;6.38;4.57;;;17.10;81.40;;;;;;4908947;29;20139;-69
2022/07/16 06:02:40;;;;;;;8.15;4.10;;;17.20;81.40;;;;;;4919908;29;20349;-70
2022/07/16 06:05:06;;;;;;;6.47;4.10;;;17.40;80.70;;;;;;4926094;29;20095;-70
2022/07/16 06:07:35;;;;;;;6.95;4.20;;;17.50;79.70;;;;;;4928737;29;20047;-70
2022/07/16 06:10:02;;;;;;;7.20;4.25;;;17.60;79.40;;;;;;4928109;29;20051;-70
2022/07/16 06:12:28;;;;;;;7.05;3.88;;;17.80;78.50;;;;;;4912051;29;20028;-70
2022/07/16 06:14:53;;;;;;;7.15;3.40;;;17.80;77.30;;;;;;4907135;29;20025;-70
2022/07/16 06:17:19;;;;;;;6.85;3.30;;;17.80;77.80;;;;;;4908957;29;20048;-70
2022/07/16 06:19:45;;;;;;;8.25;3.70;;;17.80;76.60;;;;;;4909393;29;20033;-71
2022/07/16 06:22:11;;;;;;;6.55;3.50;;;17.90;76.20;;;;;;4908835;29;20117;-69
2022/07/16 06:24:37;;;;;;;5.70;3.63;;;18.00;76.50;;;;;;4910385;29;20059;-70
2022/07/16 06:27:03;;;;;;;12.68;4.00;;;18.20;76.10;;;;;;4927773;29;20087;-79
2022/07/16 06:29:29;;;;;;;6.63;3.22;;;18.50;75.70;;;;;;4928518;29;20024;-73
2022/07/16 06:31:55;;;;;;;7.35;3.90;;;18.70;74.20;;;;;;4927206;29;20107;-73
2022/07/16 06:34:21;;;;;;;8.27;3.95;;;18.70;73.50;;;;;;4928176;29;20360;-77
2022/07/16 06:36:47;;;;;;;5.10;3.20;;;18.70;73.20;;;;;;4927735;29;20377;-73
2022/07/16 06:39:13;;;;;;;5.90;3.25;;;18.80;72.60;;;;;;4924014;29;20040;-73
2022/07/16 06:41:39;;;;;;;5.53;3.33;;;18.90;73.20;;;;;;4892905;29;20045;-72
2022/07/16 06:44:06;;;;;;;5.93;3.50;;;18.90;72.50;;;;;;4909898;29;20106;-72
2022/07/16 06:46:32;;;;;;;5.60;2.97;;;19.00;72.50;;;;;;4909515;29;20045;-72
2022/07/16 06:48:59;;;;;;;8.43;3.33;;;19.10;72.30;;;;;;4908906;29;20036;-72
2022/07/16 06:51:26;;;;;;;8.40;3.58;;;19.20;72.40;;;;;;4908810;29;20310;-71
2022/07/16 06:53:52;;;;;;;6.40;3.33;;;19.40;72.20;;;;;;4909097;29;20167;-74
2022/07/16 06:56:18;;;;;;;8.95;3.40;;;19.50;71.40;;;;;;4907901;29;20043;-71
2022/07/16 06:58:44;;;;;;;6.15;3.15;;;19.70;71.60;;;;;;4908728;29;20036;-71
2022/07/16 07:01:11;;;;;;;7.40;3.40;;;19.80;71.30;;;;;;4907592;29;20069;-71
2022/07/16 07:03:40;;;;;;;5.53;3.40;;;19.80;70.70;;;;;;4926965;29;20055;-71
2022/07/16 07:06:07;;;;;;;7.90;4.20;;;19.80;70.60;;;;;;4937328;29;20051;-72
2022/07/16 07:08:34;;;;;;;6.47;3.10;;;19.80;70.80;;;;;;4946426;29;20042;-71
2022/07/16 07:11:00;;;;;;;6.10;3.30;;;20.00;72.00;;;;;;4946119;29;20019;-71
2022/07/16 07:13:27;;;;;;;7.20;3.50;;;20.20;70.40;;;;;;4946321;29;20095;-71
2022/07/16 07:15:53;;;;;;;5.88;3.28;;;20.30;69.20;;;;;;4945990;29;20034;-71
2022/07/16 07:18:19;;;;;;;8.75;3.58;;;20.50;69.10;;;;;;4929220;29;20040;-71
2022/07/16 07:20:44;;;;;;;7.68;3.00;;;20.60;67.90;;;;;;4929474;29;20035;-72
2022/07/16 07:23:10;;;;;;;10.10;3.30;;;20.60;68.40;;;;;;4946004;29;20180;-71
2022/07/16 07:25:36;;;;;;;6.18;3.53;;;20.80;69.00;;;;;;4946231;29;20023;-71
2022/07/16 07:28:02;;;;;;;5.72;2.42;;;21.10;67.60;;;;;;4945591;29;20043;-77
2022/07/16 07:30:28;;;;;;;6.90;3.00;;;21.20;66.30;;;;;;4945635;29;20210;-71
2022/07/16 07:32:54;;;;;;;8.77;2.88;;;21.30;65.80;;;;;;4937513;29;20036;-72
2022/07/16 07:35:20;;;;;;;6.55;3.08;;;21.40;66.10;;;;;;4925045;29;20051;-71
2022/07/16 07:37:45;;;;;;;6.40;2.80;;;21.60;66.50;;;;;;4925926;29;20179;-71
2022/07/16 07:40:12;;;;;;;6.57;3.05;;;21.80;65.50;;;;;;4925616;29;20095;-71
2022/07/16 07:42:37;;;;;;;6.75;3.00;;;21.90;64.10;;;;;;4925821;29;20099;-71
2022/07/16 07:45:05;;;;;;;7.65;2.80;;;22.00;64.30;;;;;;4924811;29;20278;-72
2022/07/16 07:47:31;;;;;;;6.30;2.60;;;21.90;64.00;;;;;;4925820;29;20031;-72
2022/07/16 07:49:58;;;;;;;9.30;2.92;;;21.90;64.50;;;;;;4925135;29;20048;-72
2022/07/16 07:52:23;;;;;;;6.40;3.03;;;21.90;64.80;;;;;;4925464;29;20225;-71
2022/07/16 07:54:49;;;;;;;5.78;2.65;;;21.80;64.80;;;;;;4925519;29;20036;-71
2022/07/16 07:57:15;;;;;;;6.53;3.10;;;21.80;65.00;;;;;;4925047;29;20092;-71
2022/07/16 07:59:41;;;;;;;5.65;2.42;;;21.80;64.00;;;;;;4925943;29;20294;-72
2022/07/16 08:02:07;;;;;;;7.72;3.13;;;21.90;64.40;;;;;;4924096;29;20068;-72
2022/07/16 08:04:36;;;;;;;4.00;2.30;;;21.90;64.60;;;;;;4925390;29;20035;-71
2022/07/16 08:07:02;;;;;;;6.30;2.58;;;22.10;64.00;;;;;;4924614;29;20036;-71
2022/07/16 08:09:28;;;;;;;5.50;1.80;;;22.10;63.00;;;;;;4925386;29;20040;-72
2022/07/16 08:11:53;;;;;;;5.55;2.33;;;22.30;63.20;;;;;;4925948;29;20032;-71
2022/07/16 08:14:19;;;;;;;2.97;1.70;;;22.40;60.90;;;;;;4926092;29;20179;-71
2022/07/16 08:16:45;;;;;;;3.17;1.60;;;22.60;60.80;;;;;;4909243;29;20310;-71
2022/07/16 08:19:11;;;;;;;2.67;1.67;;;22.80;59.80;;;;;;4924831;29;20226;-71
2022/07/16 08:21:37;;;;;;;5.22;1.30;;;22.80;59.40;;;;;;4926052;29;20101;-71
2022/07/16 08:26:47;;;;;;;3.13;1.20;;;23.00;57.70;;;;;;4926111;29;20027;-72
2022/07/16 08:29:13;;;;;;;5.60;1.63;;;23.00;58.20;;;;;;4925679;29;20120;-71
2022/07/16 08:31:39;;;;;;;3.33;1.75;;;23.00;59.50;;;;;;4925423;29;20040;-70
2022/07/16 08:34:04;;;;;;;6.57;1.20;;;23.10;58.00;;;;;;4936320;29;20377;-72
2022/07/16 08:36:30;;;;;;;4.18;1.38;;;22.90;56.70;;;;;;4945296;29;20036;-71
2022/07/16 08:38:56;;;;;;;2.65;1.20;;;22.90;56.90;;;;;;4944772;29;20032;-71
2022/07/16 08:41:23;;;;;;;3.70;1.42;;;22.90;56.70;;;;;;4944265;29;20039;-71
2022/07/16 08:43:49;;;;;;;2.88;1.77;;;23.00;58.30;;;;;;4945060;29;20051;-71
2022/07/16 08:46:21;;;;;;;6.20;1.40;;;23.00;57.30;;;;;;4944082;28;20094;-71
2022/07/16 08:48:52;;;;;;;4.57;1.42;;;23.00;57.30;;;;;;4933476;29;20040;-71
2022/07/16 08:51:22;;;;;;;6.13;1.80;;;22.80;57.70;;;;;;4912320;29;20225;-71
2022/07/16 08:53:50;;;;;;;3.80;1.40;;;22.90;57.20;;;;;;4907827;29;20032;-71
2022/07/16 08:56:17;;;;;;;3.75;1.20;;;22.90;57.40;;;;;;4925496;29;20043;-71
2022/07/16 08:58:43;;;;;;;3.03;1.08;;;23.10;55.80;;;;;;4926008;29;20028;-71
2022/07/16 09:01:10;;;;;;;2.25;1.00;;;23.10;55.40;;;;;;4907401;29;20111;-72
2022/07/16 09:03:36;;;;;;;2.75;0.90;;;23.10;55.00;;;;;;4925587;29;20123;-72
2022/07/16 09:06:02;;;;;;;3.60;1.20;;;23.00;55.30;;;;;;4925170;29;20220;-72
2022/07/16 09:08:28;;;;;;;4.35;1.08;;;23.10;55.40;;;;;;4925465;29;20310;-71
2022/07/16 09:10:54;;;;;;;4.13;1.10;;;23.20;55.80;;;;;;4925773;29;20083;-72
2022/07/16 09:13:20;;;;;;;3.83;1.25;;;23.10;55.00;;;;;;4924842;29;20031;-72
2022/07/16 09:15:46;;;;;;;3.25;1.00;;;23.00;54.90;;;;;;4924974;29;20115;-72
2022/07/16 09:18:26;;;;;;;2.92;1.10;;;23.10;54.90;;;;;;4925129;29;20096;-72
2022/07/16 09:20:53;;;;;;;3.13;1.13;;;23.10;54.30;;;;;;4912084;29;20032;-72
2022/07/16 09:23:19;;;;;;;2.60;0.80;;;23.10;54.60;;;;;;4928962;29;20040;-72
2022/07/16 09:26:02;;;;;;;2.65;1.00;;;23.00;53.70;;;;;;4929331;29;20105;-73
2022/07/16 09:28:47;;;;;;;3.10;1.00;;;23.00;53.60;;;;;;4929262;29;20111;-73
2022/07/16 09:31:36;;;;;;;3.55;1.00;;;23.00;54.70;;;;;;4928343;29;20242;-71
2022/07/16 09:34:05;;;;;;;3.08;1.30;;;23.10;54.50;;;;;;4939493;29;20031;-71
2022/07/16 09:36:31;;;;;;;3.45;1.05;;;23.20;54.90;;;;;;4948117;29;20043;-71
2022/07/16 09:39:05;;;;;;;2.20;0.82;;;23.40;55.00;;;;;;4948254;29;20317;-70
2022/07/16 09:41:44;;;;;;;2.70;1.10;;;23.50;55.20;;;;;;4930975;29;20307;-72
2022/07/16 09:44:18;;;;;;;2.55;0.90;;;23.70;54.70;;;;;;4945384;29;20062;-72
2022/07/16 09:46:57;;;;;;;3.30;0.95;;;23.70;53.70;;;;;;4947630;29;20264;-73
2022/07/16 09:49:23;;;;;;;2.28;0.88;;;23.70;54.40;;;;;;4933839;29;20092;-71
2022/07/16 09:51:49;;;;;;;3.78;1.13;;;23.60;54.70;;;;;;4928762;29;20051;-72
2022/07/16 09:54:36;;;;;;;2.50;1.17;;;23.80;54.60;;;;;;4911571;29;20314;-72
2022/07/16 09:57:17;;;;;;;2.47;0.90;;;24.00;54.60;;;;;;4928940;29;20044;-70
2022/07/16 09:59:45;;;;;;;2.42;0.90;;;24.10;54.30;;;;;;4928930;29;20035;-72
2022/07/16 10:02:13;;;;;;;2.50;0.90;;;24.20;53.70;;;;;;4927285;29;20056;-71
2022/07/16 10:04:39;;;;;;;3.05;1.17;;;24.10;53.90;;;;;;4928544;29;20091;-72
2022/07/16 10:07:05;;;;;;;3.75;1.00;;;24.20;54.20;;;;;;4928095;29;20152;-73
2022/07/16 10:09:31;;;;;;;3.88;1.27;;;24.10;53.50;;;;;;4928745;29;20044;-72
2022/07/16 10:12:09;;;;;;;3.33;1.10;;;24.10;53.40;;;;;;4928242;29;20315;-72
2022/07/16 10:14:37;;;;;;;3.67;1.10;;;24.00;53.20;;;;;;4928637;29;20043;-72
2022/07/16 10:17:14;;;;;;;4.68;1.05;;;23.80;53.60;;;;;;4927853;29;20356;-73
2022/07/16 10:19:41;;;;;;;2.33;0.88;;;23.80;53.60;;;;;;4928786;29;20095;-71
2022/07/16 10:22:29;;;;;;;2.90;1.02;;;23.90;53.90;;;;;;4927831;29;20410;-72
2022/07/16 10:24:56;;;;;;;2.97;1.10;;;24.00;54.50;;;;;;4928772;29;20050;-72
2022/07/16 10:27:35;;;;;;;3.13;1.17;;;24.30;53.70;;;;;;4926642;29;20032;-72
2022/07/16 10:30:25;;;;;;;4.90;0.88;;;24.60;52.70;;;;;;4928403;29;20036;-73
2022/07/16 10:33:02;;;;;;;3.13;1.30;;;24.60;52.40;;;;;;4910204;29;20048;-73
2022/07/16 10:35:30;;;;;;;2.00;0.90;;;24.60;52.50;;;;;;4927700;29;20036;-72
2022/07/16 10:38:27;;;;;;;2.80;0.88;;;24.50;52.30;;;;;;4928353;29;20084;-73
2022/07/16 10:41:15;;;;;;;2.97;0.60;;;24.60;52.50;;;;;;4927998;29;20042;-73
2022/07/16 10:43:43;;;;;;;2.88;0.90;;;24.60;52.20;;;;;;4918390;29;20080;-73
2022/07/16 10:46:11;;;;;;;2.80;1.00;;;24.80;51.90;;;;;;4916786;29;20218;-74
2022/07/16 10:48:36;;;;;;;3.05;0.95;;;24.80;52.20;;;;;;4928109;29;20195;-73
2022/07/16 10:51:21;;;;;;;2.13;0.77;;;25.00;52.00;;;;;;4927977;29;20062;-73
2022/07/16 10:53:56;;;;;;;3.67;1.00;;;25.20;51.70;;;;;;4911010;29;20332;-73
2022/07/16 10:56:43;;;;;;;4.15;1.27;;;25.30;51.30;;;;;;4928083;29;20092;-73
2022/07/16 10:59:11;;;;;;;2.50;1.00;;;25.20;51.40;;;;;;4927499;29;20206;-73
2022/07/16 11:01:39;;;;;;;3.67;0.80;;;25.30;51.60;;;;;;4926875;29;20076;-73
2022/07/16 11:04:06;;;;;;;4.43;1.10;;;25.40;51.10;;;;;;4927771;29;20103;-73
2022/07/16 11:06:32;;;;;;;3.78;1.20;;;25.40;51.10;;;;;;4927098;29;20775;-73
2022/07/16 11:09:03;;;;;;;3.78;1.08;;;25.40;51.40;;;;;;4927542;29;20051;-74
2022/07/16 11:11:37;;;;;;;16.42;1.80;;;25.60;51.80;;;;;;4927162;29;20039;-72
2022/07/16 11:14:04;;;;;;;3.95;1.23;;;25.70;51.50;;;;;;4927812;29;20039;-72
2022/07/16 11:16:30;;;;;;;2.45;0.85;;;25.90;51.60;;;;;;4926607;29;20074;-73
2022/07/16 11:19:01;;;;;;;2.28;0.95;;;26.20;50.00;;;;;;4927580;29;20031;-73
2022/07/16 11:21:27;;;;;;;3.17;1.00;;;26.20;50.00;;;;;;4926913;29;20217;-74
2022/07/16 11:23:55;;;;;;;3.53;0.95;;;26.40;50.10;;;;;;4927201;29;20091;-74
2022/07/16 11:26:21;;;;;;;;;;;26.50;48.80;;;;;;4927777;29;20047;-74
2022/07/16 11:28:52;;;;;;;2.83;0.80;;;26.70;49.00;;;;;;4927262;29;19915;-74
2022/07/16 11:31:27;;;;;;;3.85;0.70;;;26.70;49.00;;;;;;4926457;29;20110;-72
2022/07/16 11:34:11;;;;;;;3.47;0.90;;;26.80;48.60;;;;;;4926850;29;20269;-71
2022/07/16 11:36:48;;;;;;;3.83;0.80;;;26.80;48.90;;;;;;4927224;29;20043;-72
2022/07/16 11:39:21;;;;;;;3.08;0.75;;;27.00;47.80;;;;;;4927111;29;20043;-72
2022/07/16 11:41:50;;;;;;;3.50;0.75;;;27.50;47.80;;;;;;4926553;29;20255;-73
2022/07/16 11:44:20;;;;;;;4.43;0.80;;;28.20;47.00;;;;;;4926648;29;20095;-73
2022/07/16 11:46:49;;;;;;;1.23;0.68;;;29.00;46.60;;;;;;4926460;29;20203;-73
2022/07/16 11:49:29;;;;;;;2.95;0.70;;;29.50;45.50;;;;;;4926525;29;20107;-73
2022/07/16 11:52:01;;;;;;;2.88;0.68;;;30.10;44.90;;;;;;4926752;29;20067;-73
2022/07/16 11:54:27;;;;;;;5.70;0.60;;;30.60;44.90;;;;;;4924987;29;20317;-73
2022/07/16 11:56:55;;;;;;;2.30;0.77;;;31.70;43.70;;;;;;4926888;29;20075;-73
2022/07/16 11:59:26;;;;;;;2.33;0.80;;;32.10;43.30;;;;;;4926145;29;20271;-74
2022/07/16 12:02:02;;;;;;;2.80;0.70;;;32.80;42.70;;;;;;4925927;29;20099;-74
2022/07/16 12:04:39;;;;;;;1.23;0.50;;;33.40;42.30;;;;;;4925990;29;20361;-73
2022/07/16 12:07:10;;;;;;;2.25;0.93;;;34.40;41.90;;;;;;4926959;29;20036;-74
2022/07/16 12:09:39;;;;;;;1.17;0.50;;;34.90;41.30;;;;;;4926077;29;20044;-74
2022/07/16 12:12:11;;;;;;;4.72;0.70;;;35.90;41.10;;;;;;4926599;29;20043;-74
2022/07/16 12:14:45;;;;;;;1.95;0.70;;;36.50;40.00;;;;;;4926015;29;20056;-74
2022/07/16 12:17:47;;;;;;;2.95;0.68;;;37.00;40.60;;;;;;4925900;29;20095;-74
2022/07/16 12:20:17;;;;;;;3.72;0.73;;;37.30;40.00;;;;;;4876839;29;20052;-74
2022/07/16 12:22:45;;;;;;;1.83;0.68;;;37.50;39.80;;;;;;4926397;29;20039;-75
2022/07/16 12:25:21;;;;;;;;;;;37.80;39.70;;;;;;4926948;29;20036;-74
2022/07/16 12:27:49;;;;;;;3.00;0.60;;;38.40;39.00;;;;;;4926566;29;19907;-74
2022/07/16 12:30:16;;;;;;;2.10;0.60;;;37.90;39.00;;;;;;4925283;29;20058;-74
2022/07/16 12:32:49;;;;;;;2.15;0.47;;;38.20;39.40;;;;;;4926073;29;20028;-74
2022/07/16 12:35:56;;;;;;;3.00;0.70;;;38.70;38.80;;;;;;4906746;29;20032;-74
2022/07/16 12:38:37;;;;;;;1.50;0.50;;;39.20;39.30;;;;;;4830838;29;20425;-74
2022/07/16 12:41:05;;;;;;;2.45;0.70;;;39.80;38.60;;;;;;4831330;29;20046;-74
2022/07/16 12:43:32;;;;;;;2.10;0.40;;;40.50;37.80;;;;;;4838957;29;20054;-74
2022/07/16 12:45:59;;;;;;;1.63;0.50;;;40.70;38.10;;;;;;4848816;29;20192;-74
2022/07/16 12:48:25;;;;;;;;;;;40.60;38.00;;;;;;4849494;29;20038;-72
2022/07/16 12:50:51;;;;;;;1.80;0.40;;;39.90;38.40;;;;;;4849489;29;19915;-73
2022/07/16 12:53:17;;;;;;;3.10;0.47;;;40.10;38.10;;;;;;4848945;29;20283;-74
2022/07/16 13:01:12;;;;;;;2.15;0.50;;;41.00;37.80;;;;;;4848770;29;20046;-75
2022/07/16 13:03:37;;;;;;;1.55;0.40;;;42.00;37.20;;;;;;4848928;29;20084;-75
2022/07/16 13:06:03;;;;;;;2.05;0.55;;;42.40;37.30;;;;;;4849385;29;20042;-74
2022/07/16 13:08:29;;;;;;;3.08;0.70;;;42.90;36.80;;;;;;4869589;29;20372;-73
2022/07/16 13:10:55;;;;;;;1.40;0.57;;;42.60;36.90;;;;;;4925643;29;20349;-74
2022/07/16 13:13:20;;;;;;;2.58;0.45;;;42.40;37.00;;;;;;4925362;29;20046;-74
2022/07/16 13:15:46;;;;;;;1.58;0.60;;;42.40;36.80;;;;;;4925497;29;20032;-76
2022/07/16 13:18:12;;;;;;;2.92;0.50;;;42.60;36.80;;;;;;4925589;29;20032;-74
2022/07/16 13:20:38;;;;;;;1.90;0.50;;;43.10;36.90;;;;;;4925169;29;20056;-74
2022/07/16 13:23:03;;;;;;;1.58;0.40;;;43.90;36.50;;;;;;4908786;29;20191;-76
2022/07/16 13:25:29;;;;;;;2.33;0.63;;;44.00;36.40;;;;;;4925483;29;20123;-74
2022/07/16 13:27:55;;;;;;;1.67;0.63;;;44.20;35.70;;;;;;4912349;29;20310;-74
2022/07/16 13:30:21;;;;;;;1.83;0.43;;;44.20;35.50;;;;;;4921856;29;20051;-74
2022/07/16 13:32:47;;;;;;;3.30;0.73;;;44.70;35.30;;;;;;4925495;29;20032;-73
2022/07/16 13:35:13;;;;;;;1.58;0.50;;;44.20;35.90;;;;;;4924929;29;20271;-73
2022/07/16 13:37:39;;;;;;;3.90;1.00;;;44.60;35.20;;;;;;4925100;29;20091;-73
2022/07/16 13:40:05;;;;;;;1.50;0.80;;;44.80;35.30;;;;;;4925292;29;20067;-74
2022/07/16 13:42:32;;;;;;;1.50;0.70;;;45.60;35.30;;;;;;4924954;29;20031;-75
2022/07/16 13:44:58;;;;;;;1.50;0.60;;;45.90;34.70;;;;;;4926118;29;20032;-72
2022/07/16 13:47:24;;;;;;;1.00;0.50;;;46.60;34.40;;;;;;4953846;29;20048;-74
2022/07/16 13:49:50;;;;;;;1.55;0.45;;;45.60;34.50;;;;;;4944336;29;20049;-74
2022/07/16 13:52:15;;;;;;;1.35;0.50;;;45.10;34.90;;;;;;4944060;29;20225;-75
2022/07/16 13:54:41;;;;;;;1.85;0.63;;;45.60;35.40;;;;;;4942561;29;20024;-73
2022/07/16 13:59:51;;;;;;;2.20;0.70;;;45.60;34.40;;;;;;4944193;29;20039;-74
2022/07/16 14:02:17;;;;;;;2.55;0.75;;;45.40;34.80;;;;;;4943526;28;20098;-74
2022/07/16 14:04:43;;;;;;;3.45;0.68;;;45.90;34.40;;;;;;4943632;29;20098;-76
2022/07/16 14:07:08;;;;;;;2.08;0.70;;;44.90;35.10;;;;;;4947431;29;20232;-73
2022/07/16 14:09:34;;;;;;;1.38;0.52;;;44.30;34.90;;;;;;4947235;29;20040;-75
2022/07/16 14:12:00;;;;;;;2.22;0.80;;;44.90;34.60;;;;;;4947442;29;20103;-76
2022/07/16 14:14:26;;;;;;;2.50;0.70;;;45.90;34.70;;;;;;4947317;29;20044;-74
2022/07/16 14:16:52;;;;;;;2.95;0.80;;;46.90;34.10;;;;;;4947212;28;20046;-76
2022/07/16 14:19:17;;;;;;;2.30;0.90;;;47.50;34.00;;;;;;4947483;29;20043;-76
2022/07/16 14:21:44;;;;;;;4.13;0.68;;;46.60;34.20;;;;;;4943882;29;20027;-77
2022/07/16 14:24:11;;;;;;;1.90;0.60;;;46.50;34.30;;;;;;4945865;29;20317;-75
2022/07/16 14:26:36;;;;;;;;;;;46.80;34.40;;;;;;4929739;29;20131;-75
2022/07/16 14:29:04;;;;;;;2.15;0.90;;;47.70;34.10;;;;;;4946050;29;19907;-76
2022/07/16 14:31:30;;;;;;;2.08;0.70;;;47.90;33.90;;;;;;4945701;29;20237;-76
2022/07/16 14:33:56;;;;;;;3.13;0.60;;;47.10;34.20;;;;;;4946361;29;20035;-76
2022/07/16 14:36:22;;;;;;;1.67;0.73;;;47.20;34.20;;;;;;4946344;29;20024;-77
2022/07/16 14:38:48;;;;;;;2.67;1.00;;;46.20;34.40;;;;;;4946987;29;20060;-77
2022/07/16 14:41:13;;;;;;;1.90;0.75;;;45.50;34.60;;;;;;4946685;29;20079;-77
2022/07/16 14:43:39;;;;;;;2.22;0.90;;;44.60;34.90;;;;;;4946472;29;20032;-76
2022/07/16 14:46:05;;;;;;;1.90;0.82;;;44.30;35.20;;;;;;4946308;28;20039;-76
2022/07/16 14:48:31;;;;;;;3.30;0.90;;;44.40;34.90;;;;;;4946187;29;20111;-76
2022/07/16 14:50:57;;;;;;;3.75;0.90;;;44.90;34.60;;;;;;4946823;29;20027;-77
2022/07/16 14:53:22;;;;;;;1.88;0.70;;;45.10;34.40;;;;;;4946389;29;20036;-75
2022/07/16 14:55:48;;;;;;;3.22;1.00;;;45.40;34.80;;;;;;4946231;29;20027;-76
2022/07/16 14:58:14;;;;;;;4.45;1.20;;;45.80;34.50;;;;;;4946831;29;20043;-76
2022/07/16 15:00:40;;;;;;;3.00;1.00;;;45.80;34.80;;;;;;4945867;28;20106;-76
2022/07/16 15:03:06;;;;;;;1.60;0.70;;;44.70;35.10;;;;;;4946767;29;20206;-76
2022/07/16 15:05:31;;;;;;;1.90;0.68;;;44.20;35.20;;;;;;4947217;29;20084;-75
2022/07/16 15:07:57;;;;;;;3.15;0.80;;;44.80;35.70;;;;;;4945930;29;20079;-75
2022/07/16 15:10:24;;;;;;;2.97;0.90;;;45.20;35.20;;;;;;4946990;29;20043;-76
2022/07/16 15:12:50;;;;;;;2.78;0.90;;;46.00;35.00;;;;;;4945369;29;20352;-76
2022/07/16 15:15:16;;;;;;;2.63;0.80;;;46.70;34.80;;;;;;4946143;29;20063;-75
2022/07/16 15:17:44;;;;;;;5.53;1.80;;;47.40;34.10;;;;;;4944556;29;20058;-75
2022/07/16 15:20:11;;;;;;;3.97;1.02;;;47.30;34.20;;;;;;4949024;29;20047;-77
2022/07/16 15:22:40;;;;;;;;;;;47.20;34.30;;;;;;4957089;29;20039;-80
2022/07/16 15:25:07;;;;;;;3.95;1.10;;;47.00;34.20;;;;;;4945996;29;19906;-78
2022/07/16 15:27:34;;;;;;;;;;;46.80;34.20;;;;;;4946171;29;20031;-77
2022/07/16 15:29:59;;;;;;;3.58;1.02;;;46.20;34.10;;;;;;4945880;29;19913;-79
2022/07/16 15:32:25;;;;;;;3.80;0.75;;;45.80;34.80;;;;;;4945545;29;20055;-79
2022/07/16 15:34:51;;;;;;;2.25;1.00;;;46.00;34.70;;;;;;4946352;29;20036;-79
2022/07/16 15:37:17;;;;;;;2.20;0.90;;;45.40;34.60;;;;;;4945975;29;20107;-77
2022/07/16 15:39:43;;;;;;;1.85;0.65;;;45.80;34.90;;;;;;4945529;29;20039;-79
2022/07/16 15:42:09;;;;;;;1.42;0.60;;;46.30;34.50;;;;;;4929316;29;20052;-79
2022/07/16 15:44:39;;;;;;;3.40;1.07;;;46.70;34.20;;;;;;4945469;29;20028;-79
2022/07/16 15:47:05;;;;;;;2.42;0.85;;;46.90;34.00;;;;;;4924699;29;20044;-80
2022/07/16 15:49:31;;;;;;;1.80;0.63;;;46.20;34.10;;;;;;4926648;29;20100;-79
2022/07/16 15:51:58;;;;;;;1.98;0.80;;;46.00;34.60;;;;;;4927095;29;20314;-82
2022/07/16 15:54:25;;;;;;;2.25;0.77;;;45.80;34.30;;;;;;4932135;29;20023;-78
2022/07/16 15:56:51;;;;;;;1.65;0.80;;;45.60;34.60;;;;;;4945682;29;20298;-80
2022/07/16 15:59:17;;;;;;;5.05;1.00;;;45.80;34.50;;;;;;4945767;29;20040;-82
2022/07/16 16:01:43;;;;;;;3.58;0.85;;;45.80;34.50;;;;;;4943355;29;20488;-80
2022/07/16 16:04:09;;;;;;;1.52;0.70;;;45.90;34.40;;;;;;4938573;29;20100;-82
2022/07/16 16:06:35;;;;;;;3.28;0.63;;;45.40;34.30;;;;;;4936772;29;20019;-79
2022/07/16 16:09:01;;;;;;;1.50;0.80;;;45.10;34.30;;;;;;4918814;29;20023;-79
2022/07/16 16:11:27;;;;;;;4.70;1.30;;;45.00;34.50;;;;;;4945012;29;20209;-78
2022/07/16 16:13:52;;;;;;;2.47;1.13;;;45.10;34.80;;;;;;4945177;29;20229;-80
2022/07/16 16:16:18;;;;;;;3.58;1.08;;;45.10;34.70;;;;;;4930000;29;20050;-78
2022/07/16 16:18:44;;;;;;;2.67;0.65;;;44.80;34.60;;;;;;4936942;29;20040;-80
2022/07/16 16:21:10;;;;;;;2.97;0.70;;;44.20;34.70;;;;;;4942617;29;20031;-81
2022/07/16 16:23:39;;;;;;;3.03;1.02;;;44.80;34.50;;;;;;4927555;29;20310;-80
2022/07/16 16:26:07;;;;;;;1.77;0.80;;;44.60;34.50;;;;;;4940042;29;20095;-81
2022/07/16 16:28:33;;;;;;;2.20;1.08;;;44.70;34.80;;;;;;4923791;29;20028;-83
2022/07/16 16:30:59;;;;;;;3.15;1.30;;;44.40;34.80;;;;;;4915222;29;20091;-80
2022/07/16 16:33:25;;;;;;;2.75;1.00;;;44.60;34.70;;;;;;4941683;29;20031;-79
2022/07/16 16:35:51;;;;;;;3.15;1.00;;;44.90;34.60;;;;;;4945332;29;20032;-79
2022/07/16 16:38:16;;;;;;;3.03;1.10;;;44.70;34.50;;;;;;4945351;29;20036;-78
2022/07/16 16:40:51;;;;;;;3.80;0.98;;;44.70;34.80;;;;;;4944463;29;20031;-81
2022/07/16 16:43:18;;;;;;;1.80;0.75;;;44.60;34.60;;;;;;4945438;29;20047;-80
2022/07/16 16:45:44;;;;;;;2.42;0.88;;;45.10;34.60;;;;;;4946931;29;20054;-81
2022/07/16 16:48:10;;;;;;;1.80;1.07;;;45.00;34.60;;;;;;4948435;29;20030;-81
2022/07/16 16:50:36;;;;;;;2.22;0.80;;;45.20;34.50;;;;;;4944916;29;20333;-80
2022/07/16 16:53:04;;;;;;;5.45;1.20;;;44.00;34.90;;;;;;4933021;29;20031;-77
2022/07/16 16:55:29;;;;;;;;;;;42.50;35.80;;;;;;4944976;29;20028;-78
2022/07/16 16:57:55;;;;;;;2.75;1.10;;;41.20;36.30;;;;;;4947434;29;19950;-76
2022/07/16 17:00:22;;;;;;;6.25;1.40;;;39.80;37.40;;;;;;4946061;29;20269;-78
2022/07/16 17:02:48;;;;;;;3.22;1.40;;;37.50;38.60;;;;;;4944452;29;20348;-81
2022/07/16 17:05:16;;;;;;;4.10;1.30;;;35.90;40.20;;;;;;4944536;29;20099;-77
2022/07/16 17:07:42;;;;;;;3.97;1.35;;;35.80;40.40;;;;;;4944937;29;20032;-78
2022/07/16 17:10:08;;;;;;;3.97;1.48;;;36.00;40.00;;;;;;4944941;29;20032;-79
2022/07/16 17:12:36;;;;;;;6.18;1.38;;;36.00;40.00;;;;;;4943227;29;20206;-77
2022/07/16 17:15:03;;;;;;;5.00;1.30;;;37.50;39.50;;;;;;4944845;29;20028;-76
2022/07/16 17:17:29;;;;;;;2.47;1.13;;;39.00;38.40;;;;;;4943055;29;20035;-78
2022/07/16 17:19:57;;;;;;;3.70;1.17;;;40.40;37.70;;;;;;4943836;29;20042;-76
2022/07/16 17:22:23;;;;;;;3.03;1.27;;;40.50;37.10;;;;;;4962819;29;20039;-77
2022/07/16 17:24:49;;;;;;;3.75;1.30;;;41.20;37.00;;;;;;4943007;29;20226;-76
2022/07/16 17:27:15;;;;;;;4.80;1.10;;;41.10;37.20;;;;;;4943139;29;20060;-78
2022/07/16 17:29:41;;;;;;;2.30;1.17;;;41.30;36.70;;;;;;4943906;29;20222;-79
2022/07/16 17:32:07;;;;;;;3.58;1.63;;;41.50;36.70;;;;;;4926294;29;20107;-78
2022/07/16 17:34:33;;;;;;;5.63;1.38;;;41.60;36.70;;;;;;4926758;29;20103;-75
2022/07/16 17:36:59;;;;;;;4.60;1.45;;;40.90;36.70;;;;;;4944419;29;20046;-75
2022/07/16 17:39:25;;;;;;;4.32;1.17;;;40.10;37.40;;;;;;4943425;29;20052;-76
2022/07/16 17:41:50;;;;;;;2.50;1.50;;;40.30;37.50;;;;;;4947127;29;20313;-76
2022/07/16 17:44:16;;;;;;;3.92;0.93;;;39.90;37.40;;;;;;4947667;29;20035;-76
2022/07/16 17:46:42;;;;;;;4.72;1.40;;;40.30;37.50;;;;;;4946444;29;20225;-76
2022/07/16 17:51:52;;;;;;;5.57;1.65;;;40.30;36.90;;;;;;4948120;29;20032;-76
2022/07/16 17:54:18;;;;;;;4.03;1.10;;;40.20;37.80;;;;;;4947604;29;20043;-76
2022/07/16 17:56:43;;;;;;;2.10;1.05;;;39.80;37.50;;;;;;4947455;29;20066;-76
2022/07/16 17:59:10;;;;;;;4.82;1.20;;;39.10;38.00;;;;;;4930380;29;20270;-75
2022/07/16 18:01:37;;;;;;;3.65;1.40;;;39.10;38.20;;;;;;4945917;29;20331;-72
2022/07/16 18:04:03;;;;;;;3.05;1.40;;;38.90;38.20;;;;;;4947726;29;20059;-73
2022/07/16 18:06:28;;;;;;;5.95;1.42;;;38.10;38.50;;;;;;4947047;29;20031;-73